sensor_id;sensor_type;location;lat;lon;timestamp;temperature;humidity
27559;DHT22;15002;52.028;5.670;2022-12-08T00:01:08;7.30;99.90
27559;DHT22;15002;52.028;5.670;2022-12-08T00:03:34;7.40;99.90
27559;DHT22;15002;52.028;5.670;2022-12-08T00:06:02;7.40;99.90
27559;DHT22;15002;52.028;5.670;2022-12-08T00:08:47;7.40;99.90
27559;DHT22;15002;52.028;5.670;2022-12-08T00:11:31;7.40;99.90
27559;DHT22;15002;52.028;5.670;2022-12-08T00:13:57;7.40;99.90
27559;DHT22;15002;52.028;5.670;2022-12-08T00:16:23;7.30;99.90
27559;DHT22;15002;52.028;5.670;2022-12-08T00:18:49;7.40;99.90
27559;DHT22;15002;52.028;5.670;2022-12-08T00:21:14;7.30;99.90
27559;DHT22;15002;52.028;5.670;2022-12-08T00:23:40;7.30;99.90
27559;DHT22;15002;52.028;5.670;2022-12-08T00:26:06;7.30;99.90
27559;DHT22;15002;52.028;5.670;2022-12-08T00:28:32;7.30;99.90
27559;DHT22;15002;52.028;5.670;2022-12-08T00:30:59;7.30;99.90
27559;DHT22;15002;52.028;5.670;2022-12-08T00:33:26;7.40;99.90
27559;DHT22;15002;52.028;5.670;2022-12-08T00:35:52;7.30;99.90
27559;DHT22;15002;52.028;5.670;2022-12-08T00:38:18;7.40;99.90
27559;DHT22;15002;52.028;5.670;2022-12-08T00:40:44;7.30;99.90
27559;DHT22;15002;52.028;5.670;2022-12-08T00:43:10;7.40;99.90
27559;DHT22;15002;52.028;5.670;2022-12-08T00:45:36;7.40;99.90
27559;DHT22;15002;52.028;5.670;2022-12-08T00:48:01;7.30;99.90
27559;DHT22;15002;52.028;5.670;2022-12-08T00:50:27;7.40;99.90
27559;DHT22;15002;52.028;5.670;2022-12-08T00:52:52;7.30;99.90
27559;DHT22;15002;52.028;5.670;2022-12-08T00:55:18;7.40;99.90
27559;DHT22;15002;52.028;5.670;2022-12-08T00:57:44;7.40;99.90
27559;DHT22;15002;52.028;5.670;2022-12-08T01:00:10;7.40;99.90
27559;DHT22;15002;52.028;5.670;2022-12-08T01:02:35;7.40;99.90
27559;DHT22;15002;52.028;5.670;2022-12-08T01:05:01;7.50;99.90
27559;DHT22;15002;52.028;5.670;2022-12-08T01:07:27;7.50;99.90
27559;DHT22;15002;52.028;5.670;2022-12-08T01:09:52;7.30;99.90
27559;DHT22;15002;52.028;5.670;2022-12-08T01:12:18;7.50;99.90
27559;DHT22;15002;52.028;5.670;2022-12-08T01:14:43;7.40;99.90
27559;DHT22;15002;52.028;5.670;2022-12-08T01:17:09;7.40;99.90
27559;DHT22;15002;52.028;5.670;2022-12-08T01:19:36;7.40;99.90
27559;DHT22;15002;52.028;5.670;2022-12-08T01:22:02;7.40;99.90
27559;DHT22;15002;52.028;5.670;2022-12-08T01:24:27;7.30;99.90
27559;DHT22;15002;52.028;5.670;2022-12-08T01:26:53;7.40;99.90
27559;DHT22;15002;52.028;5.670;2022-12-08T01:29:18;7.30;99.90
27559;DHT22;15002;52.028;5.670;2022-12-08T01:31:44;7.30;99.90
27559;DHT22;15002;52.028;5.670;2022-12-08T01:34:10;7.50;99.90
27559;DHT22;15002;52.028;5.670;2022-12-08T01:36:36;7.40;99.90
27559;DHT22;15002;52.028;5.670;2022-12-08T01:39:04;7.40;99.90
27559;DHT22;15002;52.028;5.670;2022-12-08T01:41:33;7.40;99.90
27559;DHT22;15002;52.028;5.670;2022-12-08T01:46:48;7.40;99.90
27559;DHT22;15002;52.028;5.670;2022-12-08T01:49:23;7.40;99.90
27559;DHT22;15002;52.028;5.670;2022-12-08T01:54:20;7.40;99.90
27559;DHT22;15002;52.028;5.670;2022-12-08T01:57:04;7.50;99.90
27559;DHT22;15002;52.028;5.670;2022-12-08T01:59:36;7.40;99.90
27559;DHT22;15002;52.028;5.670;2022-12-08T02:02:03;7.40;99.90
27559;DHT22;15002;52.028;5.670;2022-12-08T02:04:29;7.50;99.90
27559;DHT22;15002;52.028;5.670;2022-12-08T02:06:54;7.50;99.90
27559;DHT22;15002;52.028;5.670;2022-12-08T02:09:20;7.40;99.90
27559;DHT22;15002;52.028;5.670;2022-12-08T02:11:47;7.40;99.90
27559;DHT22;15002;52.028;5.670;2022-12-08T02:14:13;7.40;99.90
27559;DHT22;15002;52.028;5.670;2022-12-08T02:22:36;7.40;99.90
27559;DHT22;15002;52.028;5.670;2022-12-08T02:25:25;7.50;99.90
27559;DHT22;15002;52.028;5.670;2022-12-08T02:28:21;7.50;99.90
27559;DHT22;15002;52.028;5.670;2022-12-08T02:34:03;7.40;99.90
27559;DHT22;15002;52.028;5.670;2022-12-08T02:42:43;7.30;99.90
27559;DHT22;15002;52.028;5.670;2022-12-08T02:45:23;7.40;99.90
27559;DHT22;15002;52.028;5.670;2022-12-08T02:47:50;7.40;99.90
27559;DHT22;15002;52.028;5.670;2022-12-08T02:50:17;7.40;99.90
27559;DHT22;15002;52.028;5.670;2022-12-08T02:52:45;7.40;99.90
27559;DHT22;15002;52.028;5.670;2022-12-08T02:55:24;7.50;99.90
27559;DHT22;15002;52.028;5.670;2022-12-08T02:58:14;7.40;99.90
27559;DHT22;15002;52.028;5.670;2022-12-08T03:00:58;7.50;99.90
27559;DHT22;15002;52.028;5.670;2022-12-08T03:03:58;7.40;99.90
27559;DHT22;15002;52.028;5.670;2022-12-08T03:06:44;7.40;99.90
27559;DHT22;15002;52.028;5.670;2022-12-08T03:09:26;7.50;99.90
27559;DHT22;15002;52.028;5.670;2022-12-08T03:12:24;7.50;99.90
27559;DHT22;15002;52.028;5.670;2022-12-08T03:14:53;7.40;99.90
27559;DHT22;15002;52.028;5.670;2022-12-08T03:17:23;7.30;99.90
27559;DHT22;15002;52.028;5.670;2022-12-08T03:19:51;7.30;99.90
27559;DHT22;15002;52.028;5.670;2022-12-08T03:22:21;7.30;99.90
27559;DHT22;15002;52.028;5.670;2022-12-08T03:24:50;7.40;99.90
27559;DHT22;15002;52.028;5.670;2022-12-08T03:27:21;7.40;99.90
27559;DHT22;15002;52.028;5.670;2022-12-08T03:29:50;7.30;99.90
27559;DHT22;15002;52.028;5.670;2022-12-08T03:32:32;7.30;99.90
27559;DHT22;15002;52.028;5.670;2022-12-08T03:35:02;7.40;99.90
27559;DHT22;15002;52.028;5.670;2022-12-08T03:37:28;7.40;99.90
27559;DHT22;15002;52.028;5.670;2022-12-08T03:39:54;7.40;99.90
27559;DHT22;15002;52.028;5.670;2022-12-08T03:42:20;7.40;99.90
27559;DHT22;15002;52.028;5.670;2022-12-08T03:44:46;7.40;99.90
27559;DHT22;15002;52.028;5.670;2022-12-08T03:47:11;7.40;99.90
27559;DHT22;15002;52.028;5.670;2022-12-08T03:49:37;7.40;99.90
27559;DHT22;15002;52.028;5.670;2022-12-08T03:52:02;7.40;99.90
27559;DHT22;15002;52.028;5.670;2022-12-08T03:54:28;7.50;99.90
27559;DHT22;15002;52.028;5.670;2022-12-08T03:56:54;7.40;99.90
27559;DHT22;15002;52.028;5.670;2022-12-08T03:59:19;7.50;99.90
27559;DHT22;15002;52.028;5.670;2022-12-08T04:01:45;7.50;99.90
27559;DHT22;15002;52.028;5.670;2022-12-08T04:04:11;7.40;99.90
27559;DHT22;15002;52.028;5.670;2022-12-08T04:06:36;7.40;99.90
27559;DHT22;15002;52.028;5.670;2022-12-08T04:09:02;7.40;99.90
27559;DHT22;15002;52.028;5.670;2022-12-08T04:11:28;7.60;99.90
27559;DHT22;15002;52.028;5.670;2022-12-08T04:13:54;7.60;99.90
27559;DHT22;15002;52.028;5.670;2022-12-08T04:16:22;7.30;99.90
27559;DHT22;15002;52.028;5.670;2022-12-08T04:18:49;7.30;99.90
27559;DHT22;15002;52.028;5.670;2022-12-08T04:21:14;7.30;99.90
27559;DHT22;15002;52.028;5.670;2022-12-08T04:23:40;7.30;99.90
27559;DHT22;15002;52.028;5.670;2022-12-08T04:26:06;7.30;99.90
27559;DHT22;15002;52.028;5.670;2022-12-08T04:28:32;7.30;99.90
27559;DHT22;15002;52.028;5.670;2022-12-08T04:30:58;7.30;99.90
27559;DHT22;15002;52.028;5.670;2022-12-08T04:33:24;7.30;99.90
27559;DHT22;15002;52.028;5.670;2022-12-08T04:35:49;7.30;99.90
27559;DHT22;15002;52.028;5.670;2022-12-08T04:38:15;7.10;99.90
27559;DHT22;15002;52.028;5.670;2022-12-08T04:40:41;7.20;99.90
27559;DHT22;15002;52.028;5.670;2022-12-08T04:43:07;7.20;99.90
27559;DHT22;15002;52.028;5.670;2022-12-08T04:45:33;7.20;99.90
27559;DHT22;15002;52.028;5.670;2022-12-08T04:47:59;7.20;99.90
27559;DHT22;15002;52.028;5.670;2022-12-08T04:50:26;7.30;99.90
27559;DHT22;15002;52.028;5.670;2022-12-08T04:52:54;7.20;99.90
27559;DHT22;15002;52.028;5.670;2022-12-08T04:55:20;7.20;99.90
27559;DHT22;15002;52.028;5.670;2022-12-08T04:57:46;7.30;99.90
27559;DHT22;15002;52.028;5.670;2022-12-08T05:00:12;7.20;99.90
27559;DHT22;15002;52.028;5.670;2022-12-08T05:02:38;7.20;99.90
27559;DHT22;15002;52.028;5.670;2022-12-08T05:05:04;7.30;99.90
27559;DHT22;15002;52.028;5.670;2022-12-08T05:07:30;7.30;99.90
27559;DHT22;15002;52.028;5.670;2022-12-08T05:09:56;7.40;99.90
27559;DHT22;15002;52.028;5.670;2022-12-08T05:12:21;7.40;99.90
27559;DHT22;15002;52.028;5.670;2022-12-08T05:14:47;7.40;99.90
27559;DHT22;15002;52.028;5.670;2022-12-08T05:17:17;7.30;99.90
27559;DHT22;15002;52.028;5.670;2022-12-08T05:19:43;7.30;99.90
27559;DHT22;15002;52.028;5.670;2022-12-08T05:22:09;7.40;99.90
27559;DHT22;15002;52.028;5.670;2022-12-08T05:24:35;7.30;99.90
27559;DHT22;15002;52.028;5.670;2022-12-08T05:27:01;7.40;99.90
27559;DHT22;15002;52.028;5.670;2022-12-08T05:29:27;7.40;99.90
27559;DHT22;15002;52.028;5.670;2022-12-08T05:31:52;7.30;99.90
27559;DHT22;15002;52.028;5.670;2022-12-08T05:34:18;7.40;99.90
27559;DHT22;15002;52.028;5.670;2022-12-08T05:36:43;7.50;99.90
27559;DHT22;15002;52.028;5.670;2022-12-08T05:39:13;7.50;99.90
27559;DHT22;15002;52.028;5.670;2022-12-08T05:41:38;7.40;99.90
27559;DHT22;15002;52.028;5.670;2022-12-08T05:44:04;7.40;99.90
27559;DHT22;15002;52.028;5.670;2022-12-08T05:46:30;7.30;99.90
27559;DHT22;15002;52.028;5.670;2022-12-08T05:48:57;7.20;99.90
27559;DHT22;15002;52.028;5.670;2022-12-08T05:51:23;7.30;99.90
27559;DHT22;15002;52.028;5.670;2022-12-08T05:53:50;7.20;99.90
27559;DHT22;15002;52.028;5.670;2022-12-08T05:56:17;7.30;99.90
27559;DHT22;15002;52.028;5.670;2022-12-08T05:58:43;7.40;99.90
27559;DHT22;15002;52.028;5.670;2022-12-08T06:01:27;7.30;99.90
27559;DHT22;15002;52.028;5.670;2022-12-08T06:03:53;7.20;99.90
27559;DHT22;15002;52.028;5.670;2022-12-08T06:06:19;7.20;99.90
27559;DHT22;15002;52.028;5.670;2022-12-08T06:08:44;7.20;99.90
27559;DHT22;15002;52.028;5.670;2022-12-08T06:11:20;7.20;99.90
27559;DHT22;15002;52.028;5.670;2022-12-08T06:13:47;7.20;99.90
27559;DHT22;15002;52.028;5.670;2022-12-08T06:16:12;7.10;99.90
27559;DHT22;15002;52.028;5.670;2022-12-08T06:18:38;7.10;99.90
27559;DHT22;15002;52.028;5.670;2022-12-08T06:21:10;7.10;99.90
27559;DHT22;15002;52.028;5.670;2022-12-08T06:23:36;7.10;99.90
27559;DHT22;15002;52.028;5.670;2022-12-08T06:26:04;7.20;99.90
27559;DHT22;15002;52.028;5.670;2022-12-08T06:28:31;7.10;99.90
27559;DHT22;15002;52.028;5.670;2022-12-08T06:30:57;7.20;99.90
27559;DHT22;15002;52.028;5.670;2022-12-08T06:33:23;7.30;99.90
27559;DHT22;15002;52.028;5.670;2022-12-08T06:35:49;7.20;99.90
27559;DHT22;15002;52.028;5.670;2022-12-08T06:38:14;7.30;99.90
27559;DHT22;15002;52.028;5.670;2022-12-08T06:40:40;7.10;99.90
27559;DHT22;15002;52.028;5.670;2022-12-08T06:43:06;7.10;99.90
27559;DHT22;15002;52.028;5.670;2022-12-08T06:45:31;7.30;99.90
27559;DHT22;15002;52.028;5.670;2022-12-08T06:47:57;7.20;99.90
27559;DHT22;15002;52.028;5.670;2022-12-08T06:50:23;7.20;99.90
27559;DHT22;15002;52.028;5.670;2022-12-08T06:52:48;7.20;99.90
27559;DHT22;15002;52.028;5.670;2022-12-08T06:55:14;7.10;99.90
27559;DHT22;15002;52.028;5.670;2022-12-08T06:57:39;7.10;99.90
27559;DHT22;15002;52.028;5.670;2022-12-08T07:00:06;7.10;99.90
27559;DHT22;15002;52.028;5.670;2022-12-08T07:02:31;7.10;99.90
27559;DHT22;15002;52.028;5.670;2022-12-08T07:04:57;7.00;99.90
27559;DHT22;15002;52.028;5.670;2022-12-08T07:07:23;7.00;99.90
27559;DHT22;15002;52.028;5.670;2022-12-08T07:09:49;6.90;99.90
27559;DHT22;15002;52.028;5.670;2022-12-08T07:12:14;7.00;99.90
27559;DHT22;15002;52.028;5.670;2022-12-08T07:14:40;7.00;99.90
27559;DHT22;15002;52.028;5.670;2022-12-08T07:17:05;7.00;99.90
27559;DHT22;15002;52.028;5.670;2022-12-08T07:19:31;6.90;99.90
27559;DHT22;15002;52.028;5.670;2022-12-08T07:21:57;6.90;99.90
27559;DHT22;15002;52.028;5.670;2022-12-08T07:24:23;6.90;99.90
27559;DHT22;15002;52.028;5.670;2022-12-08T07:26:48;6.90;99.90
27559;DHT22;15002;52.028;5.670;2022-12-08T07:29:14;6.90;99.90
27559;DHT22;15002;52.028;5.670;2022-12-08T07:31:40;6.90;99.90
27559;DHT22;15002;52.028;5.670;2022-12-08T07:34:05;6.90;99.90
27559;DHT22;15002;52.028;5.670;2022-12-08T07:36:32;7.00;99.90
27559;DHT22;15002;52.028;5.670;2022-12-08T07:38:58;7.00;99.90
27559;DHT22;15002;52.028;5.670;2022-12-08T07:41:24;6.90;99.90
27559;DHT22;15002;52.028;5.670;2022-12-08T07:43:51;6.90;99.90
27559;DHT22;15002;52.028;5.670;2022-12-08T07:46:20;6.90;99.90
27559;DHT22;15002;52.028;5.670;2022-12-08T07:48:46;6.90;99.90
27559;DHT22;15002;52.028;5.670;2022-12-08T07:51:13;6.90;99.90
27559;DHT22;15002;52.028;5.670;2022-12-08T07:53:40;6.90;99.90
27559;DHT22;15002;52.028;5.670;2022-12-08T07:56:08;6.90;99.90
27559;DHT22;15002;52.028;5.670;2022-12-08T07:58:33;6.80;99.90
27559;DHT22;15002;52.028;5.670;2022-12-08T08:00:59;6.80;99.90
27559;DHT22;15002;52.028;5.670;2022-12-08T08:03:25;6.80;99.90
27559;DHT22;15002;52.028;5.670;2022-12-08T08:05:50;6.80;99.90
27559;DHT22;15002;52.028;5.670;2022-12-08T08:08:16;6.70;99.90
27559;DHT22;15002;52.028;5.670;2022-12-08T08:10:43;6.80;99.90
27559;DHT22;15002;52.028;5.670;2022-12-08T08:13:08;6.80;99.90
27559;DHT22;15002;52.028;5.670;2022-12-08T08:15:34;6.80;99.90
27559;DHT22;15002;52.028;5.670;2022-12-08T08:18:00;6.80;99.90
27559;DHT22;15002;52.028;5.670;2022-12-08T08:20:26;6.70;99.90
27559;DHT22;15002;52.028;5.670;2022-12-08T08:22:51;6.70;99.90
27559;DHT22;15002;52.028;5.670;2022-12-08T08:25:18;6.80;99.90
27559;DHT22;15002;52.028;5.670;2022-12-08T08:27:44;6.80;99.90
27559;DHT22;15002;52.028;5.670;2022-12-08T08:30:12;6.80;99.90
27559;DHT22;15002;52.028;5.670;2022-12-08T08:32:38;6.80;99.90
27559;DHT22;15002;52.028;5.670;2022-12-08T08:35:04;6.90;99.90
27559;DHT22;15002;52.028;5.670;2022-12-08T08:37:30;6.80;99.90
27559;DHT22;15002;52.028;5.670;2022-12-08T08:39:56;6.80;99.90
27559;DHT22;15002;52.028;5.670;2022-12-08T08:42:22;6.80;99.90
27559;DHT22;15002;52.028;5.670;2022-12-08T08:44:47;6.90;99.90
27559;DHT22;15002;52.028;5.670;2022-12-08T08:47:13;6.90;99.90
27559;DHT22;15002;52.028;5.670;2022-12-08T08:49:39;6.90;99.90
27559;DHT22;15002;52.028;5.670;2022-12-08T08:52:05;6.80;99.90
27559;DHT22;15002;52.028;5.670;2022-12-08T08:54:31;6.90;99.90
27559;DHT22;15002;52.028;5.670;2022-12-08T08:56:58;6.90;99.90
27559;DHT22;15002;52.028;5.670;2022-12-08T08:59:25;6.90;99.90
27559;DHT22;15002;52.028;5.670;2022-12-08T09:01:50;6.80;99.90
27559;DHT22;15002;52.028;5.670;2022-12-08T09:04:16;6.80;99.90
27559;DHT22;15002;52.028;5.670;2022-12-08T09:06:42;6.80;99.90
27559;DHT22;15002;52.028;5.670;2022-12-08T09:09:08;6.80;99.90
27559;DHT22;15002;52.028;5.670;2022-12-08T09:11:34;6.90;99.90
27559;DHT22;15002;52.028;5.670;2022-12-08T09:14:00;6.80;99.90
27559;DHT22;15002;52.028;5.670;2022-12-08T09:16:25;6.80;99.90
27559;DHT22;15002;52.028;5.670;2022-12-08T09:18:51;6.90;99.90
27559;DHT22;15002;52.028;5.670;2022-12-08T09:21:20;6.90;99.90
27559;DHT22;15002;52.028;5.670;2022-12-08T09:23:48;6.90;99.90
27559;DHT22;15002;52.028;5.670;2022-12-08T09:26:13;6.90;99.90
27559;DHT22;15002;52.028;5.670;2022-12-08T09:28:39;7.00;99.90
27559;DHT22;15002;52.028;5.670;2022-12-08T09:31:13;7.10;99.90
27559;DHT22;15002;52.028;5.670;2022-12-08T09:33:39;7.10;99.90
27559;DHT22;15002;52.028;5.670;2022-12-08T09:36:05;7.00;99.90
27559;DHT22;15002;52.028;5.670;2022-12-08T09:38:31;7.00;99.90
27559;DHT22;15002;52.028;5.670;2022-12-08T09:40:57;6.90;99.90
27559;DHT22;15002;52.028;5.670;2022-12-08T09:46:04;7.00;99.90
27559;DHT22;15002;52.028;5.670;2022-12-08T09:48:34;7.00;99.90
27559;DHT22;15002;52.028;5.670;2022-12-08T09:51:02;6.90;99.90
27559;DHT22;15002;52.028;5.670;2022-12-08T09:53:31;7.00;99.90
27559;DHT22;15002;52.028;5.670;2022-12-08T09:56:13;7.00;99.90
27559;DHT22;15002;52.028;5.670;2022-12-08T10:01:17;7.10;99.90
27559;DHT22;15002;52.028;5.670;2022-12-08T10:03:43;7.00;99.90
27559;DHT22;15002;52.028;5.670;2022-12-08T10:06:20;7.00;99.90
27559;DHT22;15002;52.028;5.670;2022-12-08T10:09:07;7.10;99.90
27559;DHT22;15002;52.028;5.670;2022-12-08T10:17:01;7.00;99.90
27559;DHT22;15002;52.028;5.670;2022-12-08T10:19:30;7.10;99.90
27559;DHT22;15002;52.028;5.670;2022-12-08T10:21:58;7.00;99.90
27559;DHT22;15002;52.028;5.670;2022-12-08T10:24:36;7.00;99.90
27559;DHT22;15002;52.028;5.670;2022-12-08T10:27:04;7.00;99.90
27559;DHT22;15002;52.028;5.670;2022-12-08T10:29:34;7.00;99.90
27559;DHT22;15002;52.028;5.670;2022-12-08T10:32:00;7.00;99.90
27559;DHT22;15002;52.028;5.670;2022-12-08T10:34:34;7.10;99.90
27559;DHT22;15002;52.028;5.670;2022-12-08T10:36:59;7.10;99.90
27559;DHT22;15002;52.028;5.670;2022-12-08T10:39:39;7.20;99.90
27559;DHT22;15002;52.028;5.670;2022-12-08T10:44:39;7.10;99.90
27559;DHT22;15002;52.028;5.670;2022-12-08T10:47:14;7.20;99.90
27559;DHT22;15002;52.028;5.670;2022-12-08T10:49:40;7.30;99.90
27559;DHT22;15002;52.028;5.670;2022-12-08T10:52:22;7.30;99.90
27559;DHT22;15002;52.028;5.670;2022-12-08T10:54:52;7.20;99.90
27559;DHT22;15002;52.028;5.670;2022-12-08T10:57:20;7.30;99.90
27559;DHT22;15002;52.028;5.670;2022-12-08T10:59:46;7.30;99.90
27559;DHT22;15002;52.028;5.670;2022-12-08T11:02:18;7.30;99.90
27559;DHT22;15002;52.028;5.670;2022-12-08T11:04:45;7.40;99.90
27559;DHT22;15002;52.028;5.670;2022-12-08T11:07:18;7.40;99.90
27559;DHT22;15002;52.028;5.670;2022-12-08T11:09:46;7.40;99.90
27559;DHT22;15002;52.028;5.670;2022-12-08T11:12:18;7.40;99.90
27559;DHT22;15002;52.028;5.670;2022-12-08T11:14:46;7.50;99.90
27559;DHT22;15002;52.028;5.670;2022-12-08T11:19:53;7.30;99.90
27559;DHT22;15002;52.028;5.670;2022-12-08T11:25:18;7.40;99.90
27559;DHT22;15002;52.028;5.670;2022-12-08T11:27:47;7.40;99.90
27559;DHT22;15002;52.028;5.670;2022-12-08T11:30:23;7.40;99.90
27559;DHT22;15002;52.028;5.670;2022-12-08T11:32:55;7.50;99.90
27559;DHT22;15002;52.028;5.670;2022-12-08T11:35:30;7.40;99.90
27559;DHT22;15002;52.028;5.670;2022-12-08T11:38:02;7.40;99.90
27559;DHT22;15002;52.028;5.670;2022-12-08T11:40:33;7.40;99.90
27559;DHT22;15002;52.028;5.670;2022-12-08T11:45:38;7.30;99.90
27559;DHT22;15002;52.028;5.670;2022-12-08T11:48:29;7.30;99.90
27559;DHT22;15002;52.028;5.670;2022-12-08T11:51:36;7.30;99.90
27559;DHT22;15002;52.028;5.670;2022-12-08T11:54:12;7.40;99.90
27559;DHT22;15002;52.028;5.670;2022-12-08T11:56:48;7.40;99.90
27559;DHT22;15002;52.028;5.670;2022-12-08T11:59:22;7.40;99.90
27559;DHT22;15002;52.028;5.670;2022-12-08T12:01:50;7.30;99.90
27559;DHT22;15002;52.028;5.670;2022-12-08T12:09:34;7.30;99.90
27559;DHT22;15002;52.028;5.670;2022-12-08T12:14:56;7.40;99.90
27559;DHT22;15002;52.028;5.670;2022-12-08T12:20:22;7.40;99.90
27559;DHT22;15002;52.028;5.670;2022-12-08T12:25:26;7.30;99.90
27559;DHT22;15002;52.028;5.670;2022-12-08T12:27:56;7.40;99.90
27559;DHT22;15002;52.028;5.670;2022-12-08T12:30:27;7.40;99.90
27559;DHT22;15002;52.028;5.670;2022-12-08T12:32:56;7.40;99.90
27559;DHT22;15002;52.028;5.670;2022-12-08T12:35:41;7.30;99.90
27559;DHT22;15002;52.028;5.670;2022-12-08T12:41:02;7.30;99.90
27559;DHT22;15002;52.028;5.670;2022-12-08T12:43:34;7.30;99.90
27559;DHT22;15002;52.028;5.670;2022-12-08T12:48:52;7.30;99.90
27559;DHT22;15002;52.028;5.670;2022-12-08T12:54:21;7.30;99.90
27559;DHT22;15002;52.028;5.670;2022-12-08T12:59:46;7.30;99.90
27559;DHT22;15002;52.028;5.670;2022-12-08T13:02:38;7.20;99.90
27559;DHT22;15002;52.028;5.670;2022-12-08T13:05:22;7.10;99.90
27559;DHT22;15002;52.028;5.670;2022-12-08T13:07:58;7.10;99.90
27559;DHT22;15002;52.028;5.670;2022-12-08T13:10:31;7.20;99.90
27559;DHT22;15002;52.028;5.670;2022-12-08T13:15:40;7.10;99.90
27559;DHT22;15002;52.028;5.670;2022-12-08T13:18:56;7.10;99.90
27559;DHT22;15002;52.028;5.670;2022-12-08T13:21:21;7.10;99.90
27559;DHT22;15002;52.028;5.670;2022-12-08T13:23:50;7.00;99.90
27559;DHT22;15002;52.028;5.670;2022-12-08T13:26:43;7.10;99.90
27559;DHT22;15002;52.028;5.670;2022-12-08T13:29:21;7.10;99.90
27559;DHT22;15002;52.028;5.670;2022-12-08T13:31:51;7.00;99.90
27559;DHT22;15002;52.028;5.670;2022-12-08T13:47:27;6.90;99.90
27559;DHT22;15002;52.028;5.670;2022-12-08T13:50:00;6.90;99.90
27559;DHT22;15002;52.028;5.670;2022-12-08T13:52:37;6.90;99.90
27559;DHT22;15002;52.028;5.670;2022-12-08T13:55:19;6.90;99.90
27559;DHT22;15002;52.028;5.670;2022-12-08T13:57:49;6.90;99.90
27559;DHT22;15002;52.028;5.670;2022-12-08T14:00:17;7.00;99.90
27559;DHT22;15002;52.028;5.670;2022-12-08T14:02:48;7.00;99.90
27559;DHT22;15002;52.028;5.670;2022-12-08T14:05:19;7.00;99.90
27559;DHT22;15002;52.028;5.670;2022-12-08T14:07:48;6.90;99.90
27559;DHT22;15002;52.028;5.670;2022-12-08T14:10:40;6.90;99.90
27559;DHT22;15002;52.028;5.670;2022-12-08T14:13:10;6.90;99.90
27559;DHT22;15002;52.028;5.670;2022-12-08T14:15:38;6.90;99.90
27559;DHT22;15002;52.028;5.670;2022-12-08T14:18:06;6.90;99.90
27559;DHT22;15002;52.028;5.670;2022-12-08T14:21:10;6.80;99.90
27559;DHT22;15002;52.028;5.670;2022-12-08T14:23:36;6.80;99.90
27559;DHT22;15002;52.028;5.670;2022-12-08T14:26:03;6.70;99.90
27559;DHT22;15002;52.028;5.670;2022-12-08T14:28:31;6.80;99.90
27559;DHT22;15002;52.028;5.670;2022-12-08T14:30:57;6.80;99.90
27559;DHT22;15002;52.028;5.670;2022-12-08T14:33:24;6.80;99.90
27559;DHT22;15002;52.028;5.670;2022-12-08T14:35:52;6.80;99.90
27559;DHT22;15002;52.028;5.670;2022-12-08T14:38:20;6.80;99.90
27559;DHT22;15002;52.028;5.670;2022-12-08T14:41:01;6.80;99.90
27559;DHT22;15002;52.028;5.670;2022-12-08T14:43:27;6.70;99.90
27559;DHT22;15002;52.028;5.670;2022-12-08T14:46:00;6.60;99.90
27559;DHT22;15002;52.028;5.670;2022-12-08T14:51:21;6.70;99.90
27559;DHT22;15002;52.028;5.670;2022-12-08T14:54:12;6.60;99.90
27559;DHT22;15002;52.028;5.670;2022-12-08T14:56:45;6.60;99.90
27559;DHT22;15002;52.028;5.670;2022-12-08T14:59:16;6.60;99.90
27559;DHT22;15002;52.028;5.670;2022-12-08T15:01:44;6.50;99.90
27559;DHT22;15002;52.028;5.670;2022-12-08T15:09:34;6.40;99.90
27559;DHT22;15002;52.028;5.670;2022-12-08T15:12:06;6.40;99.90
27559;DHT22;15002;52.028;5.670;2022-12-08T15:14:42;6.30;99.90
27559;DHT22;15002;52.028;5.670;2022-12-08T15:17:40;6.30;99.90
27559;DHT22;15002;52.028;5.670;2022-12-08T15:22:49;6.20;99.90
27559;DHT22;15002;52.028;5.670;2022-12-08T15:25:15;6.20;99.90
27559;DHT22;15002;52.028;5.670;2022-12-08T15:27:41;6.20;99.90
27559;DHT22;15002;52.028;5.670;2022-12-08T15:30:12;6.10;99.90
27559;DHT22;15002;52.028;5.670;2022-12-08T15:32:38;6.10;99.90
27559;DHT22;15002;52.028;5.670;2022-12-08T15:35:04;6.20;99.90
27559;DHT22;15002;52.028;5.670;2022-12-08T15:37:30;6.20;99.90
27559;DHT22;15002;52.028;5.670;2022-12-08T15:39:56;6.30;99.90
27559;DHT22;15002;52.028;5.670;2022-12-08T15:42:22;6.20;99.90
27559;DHT22;15002;52.028;5.670;2022-12-08T15:44:47;6.20;99.90
27559;DHT22;15002;52.028;5.670;2022-12-08T15:47:21;6.20;99.90
27559;DHT22;15002;52.028;5.670;2022-12-08T15:49:49;6.30;99.90
27559;DHT22;15002;52.028;5.670;2022-12-08T15:52:19;6.40;99.90
27559;DHT22;15002;52.028;5.670;2022-12-08T15:54:46;6.40;99.90
27559;DHT22;15002;52.028;5.670;2022-12-08T15:57:22;6.30;99.90
27559;DHT22;15002;52.028;5.670;2022-12-08T15:59:49;6.40;99.90
27559;DHT22;15002;52.028;5.670;2022-12-08T16:02:15;6.40;99.90
27559;DHT22;15002;52.028;5.670;2022-12-08T16:04:41;6.50;99.90
27559;DHT22;15002;52.028;5.670;2022-12-08T16:07:25;6.50;99.90
27559;DHT22;15002;52.028;5.670;2022-12-08T16:09:51;6.50;99.90
27559;DHT22;15002;52.028;5.670;2022-12-08T16:12:23;6.50;99.90
27559;DHT22;15002;52.028;5.670;2022-12-08T16:15:07;6.50;99.90
27559;DHT22;15002;52.028;5.670;2022-12-08T16:17:34;6.50;99.90
27559;DHT22;15002;52.028;5.670;2022-12-08T16:20:00;6.50;99.90
27559;DHT22;15002;52.028;5.670;2022-12-08T16:22:28;6.50;99.90
27559;DHT22;15002;52.028;5.670;2022-12-08T16:24:54;6.60;99.90
27559;DHT22;15002;52.028;5.670;2022-12-08T16:27:21;6.60;99.90
27559;DHT22;15002;52.028;5.670;2022-12-08T16:29:47;6.60;99.90
27559;DHT22;15002;52.028;5.670;2022-12-08T16:32:16;6.50;99.90
27559;DHT22;15002;52.028;5.670;2022-12-08T16:34:42;6.60;99.90
27559;DHT22;15002;52.028;5.670;2022-12-08T16:37:17;6.60;99.90
27559;DHT22;15002;52.028;5.670;2022-12-08T16:39:43;6.60;99.90
27559;DHT22;15002;52.028;5.670;2022-12-08T16:42:23;6.70;99.90
27559;DHT22;15002;52.028;5.670;2022-12-08T16:47:37;6.70;99.90
27559;DHT22;15002;52.028;5.670;2022-12-08T16:50:07;6.60;99.90
27559;DHT22;15002;52.028;5.670;2022-12-08T16:52:34;6.80;99.90
27559;DHT22;15002;52.028;5.670;2022-12-08T16:54:59;6.80;99.90
27559;DHT22;15002;52.028;5.670;2022-12-08T16:57:25;6.70;99.90
27559;DHT22;15002;52.028;5.670;2022-12-08T16:59:51;6.60;99.90
27559;DHT22;15002;52.028;5.670;2022-12-08T17:02:16;6.70;99.90
27559;DHT22;15002;52.028;5.670;2022-12-08T17:04:42;6.60;99.90
27559;DHT22;15002;52.028;5.670;2022-12-08T17:07:08;6.60;99.90
27559;DHT22;15002;52.028;5.670;2022-12-08T17:09:33;6.60;99.90
27559;DHT22;15002;52.028;5.670;2022-12-08T17:11:59;6.60;99.90
27559;DHT22;15002;52.028;5.670;2022-12-08T17:14:24;6.60;99.90
27559;DHT22;15002;52.028;5.670;2022-12-08T17:16:50;6.60;99.90
27559;DHT22;15002;52.028;5.670;2022-12-08T17:19:16;6.60;99.90
27559;DHT22;15002;52.028;5.670;2022-12-08T17:21:42;6.60;99.90
27559;DHT22;15002;52.028;5.670;2022-12-08T17:24:09;6.60;99.90
27559;DHT22;15002;52.028;5.670;2022-12-08T17:26:34;6.70;99.90
27559;DHT22;15002;52.028;5.670;2022-12-08T17:29:02;6.70;99.90
27559;DHT22;15002;52.028;5.670;2022-12-08T17:31:29;6.70;99.90
27559;DHT22;15002;52.028;5.670;2022-12-08T17:33:59;6.70;99.90